Horta Airport Horta PT
ICAO: LPHR
IATA: HOR
Category: Medium
Scheduled Services: Yes

Elevation: 118 ft
TransAlt. 5000 ft.

Airport Communications:
APP:119.7
TWR:118

LPHR Zoom In..

If you have problems with the map follow the link
https://www.worldairports.se/pages/airport.php?
ICAO=LPHR

Runways:

(A) RW 10 length 5233 ft width 148 ft
---- / hdg 102

(B) RW 28 length 5233 ft width 148 ft
---- / hdg 282

Location; LPHR
Day. 18 / Time. 21.00 Zulu
* QNH: 1027
* Temperature: 17° c. 62.6°f.
* Wind from: 260° Speed 14 kn.
Dewpoint: 15° c.
Visibility: 10 km or more.
Clouds: Few 800 ft.
Clouds: Scattered 1100 ft.

LPHR 182100Z 26014KT 9999 FEW008 SCT011 17/15 Q1027


Wind From 260°
Speed 14 kn.

 
 
jpsmedia.com for Web Design worldairports.se 2019   terms of use